Latest Weather Observations for Redesdale

IDV60801

Issued at 10:03 pm EDT Thursday 23 November 2017 (issued every 30 minutes, with the page automatically refreshed every 10 minutes)

About weather observations | Map of weather stations | Latest weather observations for VIC | Other Formats
Station Details ID: 088051 Name: REDESDALE Lat: -37.02 Lon: 144.52 Height: 290.0 m
Data from the previous 72 hours. | See also: Recent months at Redesdale
Date/Time
EDT
Temp
°C
App
Temp
°C
Dew
Point
°C
Rel
Hum
%
Delta-T
°C
Wind Press
QNH
hPa
Press
MSL
hPa
Rain since
9am
mm
Dir  Spd
km/h
Gust
km/h
Spd
kts
Gust
kts
23/10:00pm 21.4 20.6 9.6 47 6.4 SSE 4 6 2 3 - - 1.2
23/09:30pm 21.5 20.7 9.7 47 6.4 SSE 4 6 2 3 - - 1.2
23/09:00pm 22.0 20.4 8.9 43 7.1 SE 7 9 4 5 - - 1.2
23/08:30pm 22.3 21.2 8.4 41 7.4 E 4 7 2 4 - - 1.2
23/08:00pm 25.0 23.1 6.7 31 9.7 NE 6 9 3 5 - - 1.2
23/07:30pm 26.8 24.4 6.8 28 10.7 ENE 9 15 5 8 - - 1.2
23/07:00pm 28.5 26.5 7.1 26 11.6 ENE 7 15 4 8 - - 1.2
23/06:30pm 28.1 24.5 6.8 26 11.5 NE 15 22 8 12 - - 1.2
23/06:00pm 28.6 24.3 7.2 26 11.6 NNE 19 30 10 16 - - 1.2
23/05:30pm 29.2 24.9 7.7 26 11.8 NNE 20 32 11 17 - - 1.2
23/05:00pm 30.4 27.4 9.3 27 12.0 NNE 15 22 8 12 - - 1.2
23/04:30pm 29.4 27.8 7.9 26 11.9 NE 6 11 3 6 - - 1.2
23/04:00pm 25.7 24.1 12.9 45 7.5 ENE 13 24 7 13 - - 1.2
23/03:30pm 24.9 23.3 11.5 43 7.7 E 11 19 6 10 - - 0.8
23/03:28pm 25.0 23.3 12.6 46 7.2 NE 13 19 7 10 - - 0.8
23/03:00pm 30.0 27.2 5.3 21 13.1 N 9 13 5 7 - - 0.0
23/02:30pm 31.9 28.9 7.5 22 13.5 NE 13 22 7 12 - - 0.0
23/02:00pm 31.6 28.3 6.6 21 13.6 NE 13 24 7 13 - - 0.0
23/01:30pm 31.6 28.8 8.6 24 13.0 N 13 24 7 13 - - 0.0
23/01:00pm 30.9 27.7 8.6 25 12.5 NNE 15 26 8 14 - - 0.0
23/12:30pm 30.3 27.7 9.2 27 11.9 NE 13 33 7 18 - - 0.0
23/12:00pm 29.3 26.8 8.4 27 11.6 NNE 11 20 6 11 - - 0.0
23/11:30am 28.4 26.2 9.2 30 10.8 NE 11 24 6 13 - - 0.0
23/11:00am 27.6 25.3 9.0 31 10.4 NE 11 19 6 10 - - 0.0
23/10:30am 26.5 24.5 8.5 32 9.9 NNE 9 15 5 8 - - 0.0
23/10:00am 25.9 23.5 8.8 34 9.4 NNE 11 17 6 9 - - 0.0
23/09:30am 25.1 23.2 9.0 36 8.8 ENE 9 15 5 8 - - 0.0
23/09:00am 23.6 21.5 8.1 37 8.3 NE 9 17 5 9 - - 0.0
23/08:30am 22.4 19.8 7.8 39 7.7 NE 11 19 6 10 - - 0.0
23/08:00am 21.4 19.6 8.0 42 7.1 ENE 7 13 4 7 - - 0.0
23/07:30am 20.3 19.1 9.5 50 5.8 SSE 6 9 3 5 - - 0.0
23/07:25am 19.9 18.8 9.8 52 5.5 S 6 7 3 4 - - 0.0
23/07:00am 14.9 14.0 9.3 69 2.9 S 4 6 2 3 - - 0.0
23/06:30am 12.7 10.9 8.0 73 2.4 S 7 7 4 4 - - 0.0
23/06:00am 12.2 10.5 7.5 73 2.3 SSW 6 7 3 4 - - 0.0
23/05:30am 12.5 10.6 7.4 71 2.5 SSW 7 9 4 5 - - 0.0
23/05:00am 12.8 10.8 7.3 69 2.7 SSW 7 9 4 5 - - 0.0
23/04:30am 13.1 10.8 7.5 69 2.8 SSW 9 13 5 7 - - 0.0
23/04:00am 13.3 11.1 7.7 69 2.8 S 9 11 5 6 - - 0.0
23/03:30am 14.2 12.6 7.9 66 3.2 SSW 6 7 3 4 - - 0.0
23/03:00am 14.5 12.9 8.0 65 3.3 SSW 6 9 3 5 - - 0.0
23/02:30am 15.0 12.9 8.3 64 3.4 SSW 9 11 5 6 - - 0.0
23/02:00am 16.0 13.6 8.7 62 3.8 SSW 11 13 6 7 - - 0.0
23/01:30am 16.1 13.8 9.1 63 3.7 SSW 11 13 6 7 - - 0.0
23/01:00am 15.9 13.6 9.1 64 3.6 SSW 11 15 6 8 - - 0.0
23/12:30am 15.6 13.6 8.8 64 3.5 SSW 9 13 5 7 - - 0.0
23/12:00am 16.8 14.8 8.8 59 4.2 S 9 11 5 6 - - 0.0
 
Date/Time
EDT
Temp
°C
App
Temp
°C
Dew
Point
°C
Rel
Hum
%
Delta-T
°C
Wind Press
QNH
hPa
Press
MSL
hPa
Rain since
9am
mm
Dir  Spd
km/h
Gust
km/h
Spd
kts
Gust
kts
22/11:30pm 17.5 15.5 8.6 56 4.6 S 9 11 5 6 - - 0.0
22/11:00pm 17.6 15.2 8.5 55 4.7 S 11 13 6 7 - - 0.0
22/10:30pm 18.4 15.4 7.8 50 5.5 S 13 15 7 8 - - 0.0
22/10:00pm 19.1 17.1 7.2 46 6.1 S 7 17 4 9 - - 0.0
22/09:30pm 20.5 18.6 6.8 41 7.0 NE 6 11 3 6 - - 0.0
22/09:00pm 21.9 18.6 6.6 37 7.9 S 13 17 7 9 - - 0.0
22/08:30pm 21.6 19.4 5.1 34 8.3 SSE 6 7 3 4 - - 0.0
22/08:00pm 24.8 22.8 4.5 27 10.3 SE 4 4 2 2 - - 0.0
22/07:30pm 28.0 26.1 5.0 23 12.0 SE 4 7 2 4 - - 0.0
22/07:00pm 29.7 27.1 4.4 20 13.2 SE 7 15 4 8 - - 0.0
22/06:30pm 30.8 28.0 2.1 16 14.5 S 6 11 3 6 - - 0.0
22/06:00pm 31.0 27.5 1.4 15 14.8 SSE 9 19 5 10 - - 0.0
22/05:30pm 31.2 28.1 1.5 15 14.9 SE 7 17 4 9 - - 0.0
22/05:00pm 31.4 27.3 -0.3 13 15.4 E 11 19 6 10 - - 0.0
22/04:30pm 31.8 28.1 0.0 13 15.6 SE 9 24 5 13 - - 0.0
22/04:00pm 31.9 29.1 3.0 16 14.9 E 7 17 4 9 - - 0.0
22/03:30pm 31.6 28.5 3.6 17 14.6 E 9 17 5 9 - - 0.0
22/03:00pm 31.1 28.5 6.2 21 13.5 N 9 15 5 8 - - 0.0
22/02:30pm 31.0 29.0 6.1 21 13.4 ENE 6 11 3 6 - - 0.0
22/02:00pm 29.9 27.3 5.9 22 12.8 NNE 9 17 5 9 - - 0.0
22/01:30pm 29.9 27.7 7.8 25 12.2 NNE 9 17 5 9 - - 0.0
22/01:00pm 30.2 28.7 9.1 27 11.9 N 7 11 4 6 - - 0.0
22/12:30pm 29.1 27.4 7.7 26 11.7 NW 6 13 3 7 - - 0.0
22/12:00pm 28.5 26.4 8.2 28 11.2 N 9 17 5 9 - - 0.0
22/11:30am 27.6 26.1 8.5 30 10.5 NNE 6 11 3 6 - - 0.0
22/11:00am 26.6 24.7 9.0 33 9.7 NE 9 17 5 9 - - 0.0
22/10:30am 26.0 24.4 8.9 34 9.4 NE 7 15 4 8 - - 0.0
22/10:00am 24.8 22.3 8.3 35 8.9 NE 11 20 6 11 - - 0.0
22/09:30am 23.8 21.1 7.4 35 8.7 ENE 11 19 6 10 - - 0.0
22/09:00am 23.6 21.1 8.1 37 8.3 NE 11 17 6 9 - - 0.0
22/08:30am 22.5 20.1 8.6 41 7.5 NE 11 19 6 10 - - 0.0
22/08:00am 21.8 20.6 10.3 48 6.4 ENE 7 11 4 6 - - 0.0
22/07:30am 20.3 18.9 11.0 55 5.2 E 9 15 5 8 - - 0.0
22/07:00am 17.9 16.7 11.7 67 3.4 ESE 9 13 5 7 - - 0.0
22/06:30am 15.6 15.0 11.8 78 2.1 SE 6 9 3 5 - - 0.0
22/06:00am 14.7 13.9 11.7 82 1.6 SSW 7 9 4 5 - - 0.0
22/05:30am 14.4 13.7 11.4 82 1.6 S 6 7 3 4 - - 0.0
22/05:00am 15.0 14.2 11.6 80 1.9 SSW 7 9 4 5 - - 0.0
22/04:30am 15.5 14.6 11.5 77 2.2 SSW 7 11 4 6 - - 0.0
22/04:00am 15.1 13.8 11.1 77 2.2 SSW 9 11 5 6 - - 0.0
22/03:30am 14.9 13.5 10.9 77 2.2 SSW 9 9 5 5 - - 0.0
22/03:00am 14.6 13.7 10.6 77 2.1 SSW 6 9 3 5 - - 0.0
22/02:30am 15.5 14.4 10.7 73 2.6 SSW 7 9 4 5 - - 0.0
22/02:00am 16.2 15.1 10.7 70 3.0 S 7 11 4 6 - - 0.0
22/01:30am 16.7 14.9 11.0 69 3.1 S 11 13 6 7 - - 0.0
22/01:00am 16.6 15.3 11.1 70 3.0 SSW 9 11 5 6 - - 0.0
22/12:30am 17.2 15.5 11.2 68 3.3 SSW 11 11 6 6 - - 0.0
22/12:00am 17.2 16.0 11.5 69 3.1 SSW 9 11 5 6 - - 0.0
 
Date/Time
EDT
Temp
°C
App
Temp
°C
Dew
Point
°C
Rel
Hum
%
Delta-T
°C
Wind Press
QNH
hPa
Press
MSL
hPa
Rain since
9am
mm
Dir  Spd
km/h
Gust
km/h
Spd
kts
Gust
kts
21/11:30pm 17.3 16.2 11.8 70 3.0 SSW 9 11 5 6 - - 0.0
21/11:00pm 17.5 16.8 12.0 70 3.1 SSW 7 11 4 6 - - 0.0
21/10:30pm 18.4 17.7 11.9 66 3.6 SSW 7 9 4 5 - - 0.0
21/10:00pm 18.5 17.7 11.8 65 3.7 S 7 11 4 6 - - 0.0
21/09:30pm 19.3 18.6 11.3 60 4.4 SSE 6 9 3 5 - - 0.0
21/09:00pm 20.6 19.5 10.1 51 5.7 SE 6 6 3 3 - - 0.0
21/08:30pm 22.9 22.0 9.3 42 7.4 SE 4 6 2 3 - - 0.0
21/08:00pm 25.5 25.3 8.9 35 9.1 CALM 0 2 0 1 - - 0.0
21/07:30pm 27.1 25.9 8.0 30 10.4 N 4 6 2 3 - - 0.0
21/07:00pm 27.6 26.1 8.5 30 10.5 N 6 7 3 4 - - 0.0
21/06:30pm 27.6 26.2 9.0 31 10.4 N 6 7 3 4 - - 0.0
21/06:00pm 28.3 26.2 8.1 28 11.1 N 9 15 5 8 - - 0.0
21/05:30pm 29.7 28.0 8.2 26 11.9 N 7 13 4 7 - - 0.0
21/05:00pm 29.8 28.2 8.8 27 11.8 N 7 17 4 9 - - 0.0
21/04:30pm 29.4 27.6 7.9 26 11.9 NE 7 13 4 7 - - 0.0
21/04:00pm 29.2 25.3 7.2 25 12.0 NNW 17 24 9 13 - - 0.0
21/03:30pm 30.6 29.6 8.9 26 12.2 NE 4 11 2 6 - - 0.0
21/03:00pm 29.5 27.1 8.5 27 11.7 NNE 11 19 6 10 - - 0.0
21/02:30pm 29.6 27.2 8.6 27 11.7 NNE 11 19 6 10 - - 0.0
21/02:00pm 29.6 27.2 8.6 27 11.7 N 11 22 6 12 - - 0.0
21/01:30pm 29.9 27.8 9.9 29 11.4 N 11 24 6 13 - - 0.0
21/01:00pm 29.2 27.9 11.3 33 10.4 NNE 9 15 5 8 - - 0.0
21/12:30pm 28.7 27.4 11.3 34 10.1 N 9 20 5 11 - - 0.0
21/12:00pm 27.6 25.9 11.2 36 9.5 NE 11 20 6 11 - - 0.0
21/11:30am 26.6 25.5 10.7 37 9.1 ENE 7 17 4 9 - - 0.0
21/11:00am 25.7 24.9 11.8 42 8.0 NE 7 15 4 8 - - 0.0
21/10:30am 25.0 24.3 11.9 44 7.6 N 7 15 4 8 - - 0.0
21/10:00am 24.1 23.0 11.8 46 7.1 NNE 9 17 5 9 - - 0.0
21/09:30am 23.4 21.8 11.5 47 6.8 NNE 11 17 6 9 - - 0.0
21/09:00am 21.9 20.8 10.7 49 6.2 NNE 7 13 4 7 - - 0.0
21/08:30am 21.1 19.5 10.3 50 5.9 NE 9 15 5 8 - - 0.0
21/08:00am 20.9 20.0 10.7 52 5.6 ESE 6 9 3 5 - - 0.0
21/07:30am 19.1 19.0 12.1 64 3.9 S 4 6 2 3 - - 0.0
21/07:00am 14.5 14.5 12.4 87 1.2 S 4 6 2 3 - - 0.0
21/06:30am 11.9 10.8 10.1 89 0.9 S 6 7 3 4 - - 0.0
21/06:00am 11.4 9.9 9.3 87 1.1 SSW 7 9 4 5 - - 0.0
21/05:30am 11.3 10.1 9.6 89 0.9 S 6 7 3 4 - - 0.0
21/05:00am 11.2 9.8 9.6 90 0.8 S 7 7 4 4 - - 0.0
21/04:30am 11.9 11.0 10.6 92 0.7 S 6 7 3 4 - - 0.0
21/04:00am 12.3 11.3 11.0 92 0.7 SSW 7 7 4 4 - - 0.0
21/03:30am 12.7 12.1 11.6 93 0.6 S 6 7 3 4 - - 0.0
21/03:00am 13.4 12.8 12.3 93 0.6 SSW 7 9 4 5 - - 0.0
21/02:30am 13.3 12.8 11.9 91 0.8 S 6 7 3 4 - - 0.0
21/02:00am 14.1 13.7 12.5 90 0.9 SSW 6 9 3 5 - - 0.0
21/01:30am 15.1 14.7 13.1 88 1.1 SSW 7 9 4 5 - - 0.0
21/01:00am 16.1 15.6 13.8 86 1.3 SSW 9 9 5 5 - - 0.0
21/12:30am 15.9 15.6 13.4 85 1.4 S 7 11 4 6 - - 0.0
21/12:00am 16.1 15.7 13.0 82 1.7 SSW 7 9 4 5 - - 0.0
 
Date/Time
EDT
Temp
°C
App
Temp
°C
Dew
Point
°C
Rel
Hum
%
Delta-T
°C
Wind Press
QNH
hPa
Press
MSL
hPa
Rain since
9am
mm
Dir  Spd
km/h
Gust
km/h
Spd
kts
Gust
kts
20/11:30pm 16.4 15.4 12.2 76 2.3 S 9 11 5 6 - - 0.0
20/11:00pm 17.2 15.4 11.0 67 3.4 SSW 11 13 6 7 - - 0.0
20/10:30pm 16.1 14.7 10.8 71 2.9 SSW 9 9 5 5 - - 0.0

Other Formats:

Comma delimited format used in spreadsheet applications
http://www.bom.gov.au/fwo/IDV60801/IDV60801.94859.axf

JavaScript Object Notation format (JSON) in row-major order
http://www.bom.gov.au/fwo/IDV60801/IDV60801.94859.json